Hartford, TN (37753)

2:02 PM EDT on March 29, 2017 (GMT -0400)
| | Change Station
Active Advisory: High Wind Watch

Elev -9999 ft 0.00 °N, 0.00 °E | Updated 8 minutes ago

Clear
Clear
°F
Feels Like °F
N
Wind Variable Wind from North
Gusts mph

Today
High -- | Low -- °F
--% Chance of Precip.
Yesterday
High -- | Low -- °F
Precip. -- in
Pressure 30.02 in
Visibility 10.0 miles
Clouds Clear
Dew Point Not available.
Humidity Not available.
Rainfall --
Snow Depth Not available.
7:22 AM 7:52 PM
Waxing Crescent, 4% visible
METAR KAVL 291754Z 16005KT 10SM CLR 22/08 A3007 RMK AO2 SLP166 T02170078 10222 20072 58016
Pressure 30.02 in
Visibility 10.0 miles
Clouds Clear
Dew Point Not available.
Humidity Not available.
Rainfall --
Snow Depth Not available.
7:22 AM 7:52 PM
Waxing Crescent, 4% visible
METAR KAVL 291754Z 16005KT 10SM CLR 22/08 A3007 RMK AO2 SLP166 T02170078 10222 20072 58016

Get Your Daily Forecast Email!

Thanks for signing up!

Be on the lookout for a verification email in your inbox.

You'll start receiving severe weather alerts in your inbox..

×

10-Day Weather Forecast

Almanac

Astronomy

Mar. 29, 2017 Rise Set
Actual Time
Civil Twilight
Nautical Twilight
Astronomical Twilight
Moon
Length of Visible Light
Length of Day
Tomorrow will be .
, % of the Moon is Illuminated

Today's Extremes

State Highs State Lows

Community

WunderPhotos

Upload Photos

1,962,540 photos uploaded!

WunderBlog® & News

Nearby

Air Quality

  Air Quality AQ Index Pollutant
Not available.

Snow Depth

Station Depth Elevation

Earthquake Activity

City Distance Mag. Time & Date
Minimum magnitude displayed is 2.5.

Earthquake Activity

City Distance Mag. Time & Date
Minimum magnitude displayed is 2.5.

Coastal Water Temperatures

Place Temperature

Stations

Nearby Weather Stations

Station Location Temp. Windchill Dew Point Humidity Wind Precip. Elev Updated Type
                   

Watches & Warnings

High Wind Watch
Issued: 3:59 AM EDT Mar. 29, 2017 – National Weather Service

... High wind watch in effect from Thursday evening through Friday
morning...

The National Weather Service in Morristown has issued a high wind
watch, which is in effect from Thursday evening through Friday
morning.

* Event... southerly winds increasing to 25 to 40 mph with gusts in
excess of 60 mph.

* Timing... increasing winds late Thursday afternoon with strong
damaging southerly winds possible Thursday night and early
Friday morning.

* Impacts... the high winds may down trees and power lines.
Scattered power outages are possible. Driving high profile
vehicles in these conditions will be difficult.

Precautionary/preparedness actions...

A high wind watch means there is the potential for a hazardous
high wind event. Sustained winds of at least 40 mph... and/or
gusts of 58 mph or stronger may occur. Continue to monitor the
latest forecasts.